createdAt,value
2024-03-12T00:01:21.084Z,17.43
2024-03-12T00:03:50.624Z,18.03
2024-03-12T00:06:21.220Z,18.00
2024-03-12T00:08:49.739Z,17.03
2024-03-12T00:11:17.929Z,17.23
2024-03-12T00:13:46.748Z,17.93
2024-03-12T00:16:14.857Z,15.53
2024-03-12T00:18:44.494Z,16.80
2024-03-12T00:21:13.594Z,18.70
2024-03-12T00:23:43.506Z,18.93
2024-03-12T00:26:12.157Z,17.63
2024-03-12T00:28:40.489Z,17.97
2024-03-12T00:31:10.251Z,18.20
2024-03-12T00:33:38.793Z,17.30
2024-03-12T00:36:07.289Z,19.00
2024-03-12T00:38:35.623Z,18.47
2024-03-12T00:41:05.218Z,19.57
2024-03-12T00:43:33.841Z,18.70
2024-03-12T00:46:03.053Z,19.63
2024-03-12T00:48:31.461Z,19.63
2024-03-12T00:51:00.237Z,19.57
2024-03-12T00:53:28.632Z,20.47
2024-03-12T00:55:56.908Z,17.47
2024-03-12T00:58:26.273Z,17.67
2024-03-12T01:00:54.999Z,19.93
2024-03-12T01:03:25.326Z,17.83
2024-03-12T01:05:54.981Z,17.67
2024-03-12T01:08:24.705Z,18.70
2024-03-12T01:10:53.126Z,17.87
2024-03-12T01:13:21.680Z,17.73
2024-03-12T01:15:54.060Z,18.03
2024-03-12T01:18:22.502Z,19.33
2024-03-12T01:20:51.616Z,17.43
2024-03-12T01:23:19.558Z,18.47
2024-03-12T01:25:48.171Z,17.73
2024-03-12T01:28:16.573Z,19.83
2024-03-12T01:30:45.356Z,18.63
2024-03-12T01:33:15.081Z,19.00
2024-03-12T01:35:46.052Z,19.23
2024-03-12T01:38:15.013Z,18.80
2024-03-12T01:40:43.565Z,19.77
2024-03-12T01:43:14.035Z,18.27
2024-03-12T01:45:43.629Z,19.33
2024-03-12T01:48:12.337Z,18.97
2024-03-12T01:50:42.430Z,18.77
2024-03-12T01:53:12.314Z,19.67
2024-03-12T01:55:44.621Z,19.00
2024-03-12T01:58:16.083Z,18.03
2024-03-12T02:00:45.895Z,20.77
2024-03-12T02:03:15.249Z,19.27
2024-03-12T02:05:44.726Z,18.83
2024-03-12T02:08:13.101Z,20.67
2024-03-12T02:10:41.958Z,20.20
2024-03-12T02:13:10.416Z,19.70
2024-03-12T02:15:40.161Z,21.10
2024-03-12T02:18:10.083Z,18.07
2024-03-12T02:20:39.215Z,19.47
2024-03-12T02:23:08.771Z,19.97
2024-03-12T02:25:38.554Z,20.40
2024-03-12T02:28:07.552Z,19.13
2024-03-12T02:30:36.215Z,20.00
2024-03-12T02:33:04.849Z,19.77
2024-03-12T02:35:35.986Z,20.67
2024-03-12T02:38:04.599Z,19.30
2024-03-12T02:40:33.020Z,19.97
2024-03-12T02:43:02.434Z,20.20
2024-03-12T02:45:31.093Z,20.70
2024-03-12T02:47:59.579Z,22.90
2024-03-12T02:50:30.875Z,20.17
2024-03-12T02:52:59.741Z,19.77
2024-03-12T02:55:28.904Z,19.80
2024-03-12T02:57:57.381Z,21.83
2024-03-12T03:00:27.068Z,21.23
2024-03-12T03:02:56.115Z,20.80
2024-03-12T03:05:24.709Z,21.20
2024-03-12T03:07:53.075Z,20.67
2024-03-12T03:10:21.914Z,21.30
2024-03-12T03:12:50.588Z,20.43
2024-03-12T03:15:19.470Z,22.63
2024-03-12T03:17:50.169Z,21.63
2024-03-12T03:20:18.730Z,21.57
2024-03-12T03:22:47.343Z,23.23
2024-03-12T03:25:16.442Z,22.07
2024-03-12T03:27:45.079Z,21.90
2024-03-12T03:30:19.247Z,22.77
2024-03-12T03:32:49.689Z,22.13
2024-03-12T03:35:19.821Z,21.20
2024-03-12T03:37:48.417Z,20.80
2024-03-12T03:40:24.238Z,22.97
2024-03-12T03:42:54.556Z,22.67
2024-03-12T03:45:23.327Z,21.53
2024-03-12T03:47:53.195Z,21.03
2024-03-12T03:50:21.595Z,21.13
2024-03-12T03:52:50.036Z,21.30
2024-03-12T03:55:18.442Z,21.47
2024-03-12T03:57:48.728Z,22.43
2024-03-12T04:00:17.968Z,22.10
2024-03-12T04:02:46.703Z,22.63
2024-03-12T04:05:16.387Z,22.37
2024-03-12T04:07:45.878Z,21.03
2024-03-12T04:10:14.486Z,22.37
2024-03-12T04:12:45.926Z,22.00
2024-03-12T04:15:14.689Z,22.63
2024-03-12T04:17:45.031Z,22.97
2024-03-12T04:20:14.376Z,23.10
2024-03-12T04:22:45.358Z,22.77
2024-03-12T04:27:16.231Z,21.97
2024-03-12T04:31:35.447Z,22.30
2024-03-12T04:34:03.938Z,22.03
2024-03-12T04:36:33.958Z,22.57
2024-03-12T04:39:02.325Z,22.60
2024-03-12T04:41:30.704Z,24.23
2024-03-12T04:43:59.035Z,25.17
2024-03-12T04:49:51.685Z,23.07
2024-03-12T04:52:20.073Z,23.40
2024-03-12T04:54:48.523Z,23.87
2024-03-12T04:57:17.041Z,23.47
2024-03-12T04:59:45.440Z,24.63
2024-03-12T05:02:13.897Z,22.50
2024-03-12T05:04:42.439Z,24.23
2024-03-12T05:07:13.040Z,24.30
2024-03-12T05:09:42.869Z,23.10
2024-03-12T05:12:11.162Z,25.57
2024-03-12T05:14:40.436Z,23.30
2024-03-12T05:17:08.984Z,22.77
2024-03-12T05:19:37.547Z,23.97
2024-03-12T05:22:05.917Z,22.20
2024-03-12T05:24:36.758Z,23.30
2024-03-12T05:27:05.302Z,23.53
2024-03-12T05:29:37.958Z,25.40
2024-03-12T05:32:18.813Z,27.90
2024-03-12T05:34:48.718Z,29.10
2024-03-12T05:37:30.026Z,30.00
2024-03-12T05:40:14.258Z,30.07
2024-03-12T05:43:00.410Z,27.97
2024-03-12T05:45:46.110Z,24.60
2024-03-12T05:48:14.396Z,24.50
2024-03-12T05:50:43.773Z,25.20
2024-03-12T05:53:11.816Z,23.40
2024-03-12T05:55:42.662Z,25.13
2024-03-12T05:58:13.809Z,24.80
2024-03-12T06:00:42.045Z,24.27
2024-03-12T06:03:10.743Z,25.77
2024-03-12T06:05:38.763Z,25.63
2024-03-12T06:08:08.248Z,25.60
2024-03-12T06:10:37.776Z,24.57
2024-03-12T06:13:07.849Z,24.33
2024-03-12T06:15:36.165Z,24.83
2024-03-12T06:18:04.682Z,23.20
2024-03-12T06:20:33.136Z,24.33
2024-03-12T06:23:01.209Z,25.93
2024-03-12T06:25:29.622Z,24.00
2024-03-12T06:28:06.278Z,25.70
2024-03-12T06:30:36.642Z,22.73
2024-03-12T06:33:05.354Z,25.13
2024-03-12T06:35:33.904Z,25.13
2024-03-12T06:38:02.566Z,23.80
2024-03-12T06:40:31.020Z,25.17
2024-03-12T06:43:00.825Z,24.67
2024-03-12T06:45:29.381Z,25.67
2024-03-12T06:48:01.430Z,25.83
2024-03-12T06:50:30.062Z,25.83
2024-03-12T06:52:58.802Z,26.10
2024-03-12T06:55:28.559Z,26.33
2024-03-12T06:58:01.629Z,24.77
2024-03-12T07:00:38.503Z,25.57
2024-03-12T07:03:08.798Z,24.07
2024-03-12T07:05:38.677Z,24.23
2024-03-12T07:08:07.789Z,26.67
2024-03-12T07:10:38.326Z,25.00
2024-03-12T07:13:08.548Z,23.60
2024-03-12T07:15:40.239Z,23.60
2024-03-12T07:18:10.177Z,24.57
2024-03-12T07:20:38.966Z,24.63
2024-03-12T07:23:07.726Z,24.67
2024-03-12T07:25:36.547Z,25.50
2024-03-12T07:28:07.701Z,25.00
2024-03-12T07:30:37.449Z,24.07
2024-03-12T07:33:06.309Z,24.07
2024-03-12T07:35:36.271Z,23.73
2024-03-12T07:38:05.130Z,24.13
2024-03-12T07:40:35.628Z,23.93
2024-03-12T07:43:05.868Z,24.07
2024-03-12T07:45:34.916Z,22.90
2024-03-12T07:48:03.372Z,24.87
2024-03-12T07:50:34.426Z,24.77
2024-03-12T07:53:07.066Z,24.30
2024-03-12T07:55:36.559Z,25.70
2024-03-12T07:58:06.289Z,24.63
2024-03-12T08:00:34.884Z,25.07
2024-03-12T08:03:03.506Z,24.17
2024-03-12T08:05:35.128Z,26.07
2024-03-12T08:08:07.684Z,24.37
2024-03-12T08:10:36.085Z,23.77
2024-03-12T08:13:06.641Z,26.03
2024-03-12T08:15:35.574Z,25.77
2024-03-12T08:18:13.089Z,25.43
2024-03-12T08:20:47.388Z,24.93
2024-03-12T08:23:16.897Z,26.03
2024-03-12T08:25:55.442Z,27.57
2024-03-12T08:28:27.877Z,26.47
2024-03-12T08:31:00.044Z,25.73
2024-03-12T08:36:01.296Z,23.17
2024-03-12T08:38:30.901Z,25.47
2024-03-12T08:40:59.842Z,26.07
2024-03-12T08:43:28.068Z,24.07
2024-03-12T08:45:56.662Z,25.20
2024-03-12T08:48:25.091Z,25.27
2024-03-12T08:50:53.899Z,23.83
2024-03-12T08:53:22.269Z,25.17
2024-03-12T08:55:51.798Z,25.03
2024-03-12T08:58:20.200Z,24.17
2024-03-12T09:00:50.159Z,24.80
2024-03-12T09:03:19.322Z,22.60
2024-03-12T09:05:47.654Z,27.13
2024-03-12T09:08:18.593Z,26.73
2024-03-12T09:10:48.785Z,23.10
2024-03-12T09:13:20.193Z,24.60
2024-03-12T09:15:51.896Z,24.77
2024-03-12T09:18:24.631Z,22.23
2024-03-12T09:20:56.249Z,22.10
2024-03-12T09:23:25.001Z,22.33
2024-03-12T09:25:56.170Z,23.37
2024-03-12T09:28:25.536Z,21.97
2024-03-12T09:30:54.474Z,21.53
2024-03-12T09:33:22.852Z,22.37
2024-03-12T09:35:51.587Z,21.90
2024-03-12T09:38:20.469Z,21.70
2024-03-12T09:40:50.092Z,20.87
2024-03-12T09:43:20.199Z,21.37
2024-03-12T09:45:50.478Z,20.43
2024-03-12T09:48:18.914Z,20.83
2024-03-12T09:50:47.715Z,20.83
2024-03-12T09:53:16.679Z,22.47
2024-03-12T09:55:45.973Z,21.47
2024-03-12T09:58:14.077Z,21.53
2024-03-12T10:00:43.508Z,21.10
2024-03-12T10:03:12.949Z,22.73
2024-03-12T10:05:41.633Z,21.23
2024-03-12T10:08:14.360Z,20.93
2024-03-12T10:10:44.935Z,21.03
2024-03-12T10:13:20.876Z,22.43
2024-03-12T10:15:53.975Z,21.87
2024-03-12T10:18:25.557Z,20.50
2024-03-12T10:20:57.315Z,21.07
2024-03-12T10:23:27.307Z,21.70
2024-03-12T10:25:57.767Z,21.60
2024-03-12T10:28:31.064Z,20.73
2024-03-12T10:31:10.549Z,21.50
2024-03-12T10:33:43.932Z,19.97
2024-03-12T10:36:13.014Z,20.53
2024-03-12T10:38:42.228Z,19.90
2024-03-12T10:41:22.645Z,19.60
2024-03-12T10:43:54.823Z,21.37
2024-03-12T10:46:23.461Z,17.90
2024-03-12T10:48:52.969Z,18.67
2024-03-12T10:51:22.200Z,19.43
2024-03-12T10:53:51.707Z,18.03
2024-03-12T10:56:20.120Z,20.73
2024-03-12T10:58:49.785Z,19.53
2024-03-12T11:01:20.029Z,19.00
2024-03-12T11:03:49.450Z,21.23
2024-03-12T11:06:21.357Z,20.60
2024-03-12T11:08:50.576Z,19.90
2024-03-12T11:11:19.773Z,20.73
2024-03-12T11:13:48.348Z,19.23
2024-03-12T11:16:19.479Z,18.57
2024-03-12T11:18:49.709Z,19.40
2024-03-12T11:21:25.253Z,18.40
2024-03-12T11:23:56.658Z,18.67
2024-03-12T11:29:01.831Z,17.00
2024-03-12T11:31:36.698Z,17.10
2024-03-12T11:34:06.318Z,18.53
2024-03-12T11:36:46.521Z,18.80
2024-03-12T11:39:16.720Z,18.60
2024-03-12T11:42:13.455Z,16.97
2024-03-12T11:44:49.765Z,17.10
2024-03-12T11:47:31.096Z,17.50
2024-03-12T11:50:03.104Z,16.67
2024-03-12T11:52:34.949Z,17.47
2024-03-12T11:55:05.449Z,17.07
2024-03-12T11:57:33.873Z,18.77
2024-03-12T12:00:02.515Z,18.73
2024-03-12T12:02:30.823Z,19.20
2024-03-12T12:04:59.385Z,17.67
2024-03-12T12:07:29.573Z,17.33
2024-03-12T12:09:59.047Z,17.53
2024-03-12T12:12:29.916Z,17.97
2024-03-12T12:14:58.691Z,16.57
2024-03-12T12:17:27.434Z,17.00
2024-03-12T12:20:15.000Z,17.53
2024-03-12T12:22:47.104Z,16.30
2024-03-12T12:25:20.027Z,17.27
2024-03-12T12:27:48.836Z,17.07
2024-03-12T12:30:20.869Z,17.10
2024-03-12T12:32:52.286Z,16.03
2024-03-12T12:35:21.885Z,16.83
2024-03-12T12:37:51.891Z,15.57
2024-03-12T12:40:23.013Z,16.33
2024-03-12T12:42:52.918Z,16.97
2024-03-12T12:45:22.068Z,16.60
2024-03-12T12:47:51.307Z,17.00
2024-03-12T12:50:31.009Z,16.40
2024-03-12T12:53:00.516Z,16.30
2024-03-12T12:55:31.111Z,16.33
2024-03-12T12:58:01.001Z,16.50
2024-03-12T13:00:29.589Z,16.13
2024-03-12T13:03:18.498Z,15.43
2024-03-12T13:05:47.104Z,15.50
2024-03-12T13:08:28.141Z,16.37
2024-03-12T13:11:06.459Z,16.60
2024-03-12T13:13:36.282Z,14.97
2024-03-12T13:16:19.386Z,16.60
2024-03-12T13:18:49.423Z,17.33
2024-03-12T13:21:19.695Z,15.27
2024-03-12T13:23:48.791Z,15.60
2024-03-12T13:26:19.229Z,17.07
2024-03-12T13:28:49.115Z,16.50
2024-03-12T13:31:17.825Z,16.70
2024-03-12T13:33:48.143Z,16.67
2024-03-12T13:36:18.859Z,16.37
2024-03-12T13:38:47.051Z,16.77
2024-03-12T13:41:19.588Z,16.53
2024-03-12T13:43:53.373Z,15.60
2024-03-12T13:46:23.891Z,15.73
2024-03-12T13:48:59.007Z,16.07
2024-03-12T13:51:27.367Z,15.90
2024-03-12T13:53:55.802Z,17.23
2024-03-12T13:56:24.689Z,15.77
2024-03-12T13:58:54.329Z,16.90
2024-03-12T14:01:24.245Z,16.33
2024-03-12T14:03:55.828Z,17.77
2024-03-12T14:06:24.122Z,18.13
2024-03-12T14:08:52.607Z,16.97
2024-03-12T14:11:21.088Z,17.07
2024-03-12T14:13:51.076Z,16.07
2024-03-12T14:16:23.743Z,16.57
2024-03-12T14:18:54.085Z,16.00
2024-03-12T14:21:22.728Z,16.87
2024-03-12T14:23:51.473Z,16.70
2024-03-12T14:26:20.117Z,16.70
2024-03-12T14:28:48.246Z,18.67
2024-03-12T14:31:16.866Z,17.07
2024-03-12T14:33:49.118Z,17.33
2024-03-12T14:36:18.176Z,17.17
2024-03-12T14:38:47.964Z,16.77
2024-03-12T14:41:18.090Z,18.67
2024-03-12T14:43:46.152Z,18.33
2024-03-12T14:46:14.805Z,18.70
2024-03-12T14:48:43.239Z,19.13
2024-03-12T14:51:12.754Z,16.87
2024-03-12T14:53:41.667Z,17.37
2024-03-12T14:56:10.680Z,17.70
2024-03-12T14:58:39.046Z,17.90
2024-03-12T15:01:11.217Z,18.33
2024-03-12T15:03:39.804Z,17.30
2024-03-12T15:06:10.642Z,17.27
2024-03-12T15:08:40.114Z,17.67
2024-03-12T15:11:08.633Z,18.77
2024-03-12T15:13:37.417Z,18.97
2024-03-12T15:16:07.865Z,18.10
2024-03-12T15:18:36.991Z,18.53
2024-03-12T15:21:06.458Z,17.67
2024-03-12T15:23:34.968Z,18.33
2024-03-12T15:26:06.280Z,18.97
2024-03-12T15:28:34.865Z,18.50
2024-03-12T15:31:04.824Z,18.40
2024-03-12T15:33:34.444Z,17.97
2024-03-12T15:36:03.178Z,18.00
2024-03-12T15:38:34.118Z,19.53
2024-03-12T15:41:02.499Z,20.60
2024-03-12T15:43:32.626Z,19.37
2024-03-12T15:46:01.103Z,17.07
2024-03-12T15:48:29.151Z,20.17
2024-03-12T15:50:59.525Z,19.37
2024-03-12T15:53:28.518Z,18.47
2024-03-12T15:55:56.910Z,19.10
2024-03-12T15:58:27.325Z,19.33
2024-03-12T16:00:58.254Z,17.63
2024-03-12T16:03:26.731Z,19.30
2024-03-12T16:05:55.149Z,20.57
2024-03-12T16:08:23.586Z,19.17
2024-03-12T16:10:53.028Z,20.40
2024-03-12T16:13:22.235Z,19.13
2024-03-12T16:15:51.184Z,20.60
2024-03-12T16:18:21.514Z,19.83
2024-03-12T16:20:49.865Z,20.60
2024-03-12T16:23:18.590Z,20.13
2024-03-12T16:25:47.069Z,21.23
2024-03-12T16:28:15.420Z,19.47
2024-03-12T16:30:44.308Z,20.13
2024-03-12T16:33:12.779Z,19.47
2024-03-12T16:35:42.421Z,21.33
2024-03-12T16:38:13.781Z,19.93
2024-03-12T16:40:42.370Z,21.57
2024-03-12T16:43:10.834Z,22.10
2024-03-12T16:45:39.360Z,21.20
2024-03-12T16:48:09.814Z,20.33
2024-03-12T16:50:38.304Z,18.87
2024-03-12T16:53:08.241Z,21.13
2024-03-12T16:55:36.751Z,21.57
2024-03-12T16:58:05.881Z,20.27
2024-03-12T17:00:36.885Z,22.40
2024-03-12T17:03:06.267Z,21.17
2024-03-12T17:05:35.328Z,20.10
2024-03-12T17:08:03.579Z,20.83
2024-03-12T17:10:35.173Z,21.53
2024-03-12T17:13:04.084Z,21.13
2024-03-12T17:15:32.658Z,20.77
2024-03-12T17:18:01.574Z,21.30
2024-03-12T17:20:34.514Z,21.57
2024-03-12T17:23:05.479Z,21.50
2024-03-12T17:25:38.636Z,21.87
2024-03-12T17:28:09.387Z,21.80
2024-03-12T17:30:38.349Z,24.20
2024-03-12T17:33:07.891Z,23.10
2024-03-12T17:35:36.584Z,26.43
2024-03-12T17:38:05.373Z,26.77
2024-03-12T17:40:35.332Z,26.07
2024-03-12T17:43:03.899Z,26.53
2024-03-12T17:45:32.924Z,24.43
2024-03-12T17:48:03.186Z,24.27
2024-03-12T17:50:32.991Z,23.47
2024-03-12T17:53:03.010Z,22.73
2024-03-12T17:55:32.154Z,21.63
2024-03-12T17:58:03.469Z,22.70
2024-03-12T18:00:32.817Z,22.13
2024-03-12T18:03:01.526Z,23.43
2024-03-12T18:05:30.549Z,22.27
2024-03-12T18:07:59.065Z,21.70
2024-03-12T18:10:28.500Z,22.57
2024-03-12T18:12:57.010Z,21.77
2024-03-12T18:15:26.650Z,22.43
2024-03-12T18:17:57.417Z,21.30
2024-03-12T18:20:31.512Z,22.33
2024-03-12T18:23:00.013Z,22.37
2024-03-12T18:25:28.484Z,22.40
2024-03-12T18:27:57.965Z,21.60
2024-03-12T18:30:28.162Z,23.27
2024-03-12T18:32:58.232Z,21.73
2024-03-12T18:35:26.649Z,22.83
2024-03-12T18:37:55.001Z,21.97
2024-03-12T18:40:23.895Z,21.33
2024-03-12T18:42:52.848Z,22.87
2024-03-12T18:45:23.697Z,29.90
2024-03-12T18:47:56.412Z,26.27
2024-03-12T18:50:26.388Z,29.23
2024-03-12T18:52:54.959Z,27.00
2024-03-12T18:55:24.271Z,27.67
2024-03-12T18:57:53.316Z,28.57
2024-03-12T19:00:24.527Z,28.30
2024-03-12T19:02:58.936Z,28.93
2024-03-12T19:05:27.945Z,29.07
2024-03-12T19:07:56.722Z,30.07
2024-03-12T19:10:30.622Z,31.70
2024-03-12T19:13:00.078Z,30.87
2024-03-12T19:15:36.891Z,32.90
2024-03-12T19:18:13.752Z,34.67
2024-03-12T19:20:42.826Z,36.10
2024-03-12T19:23:12.474Z,35.00
2024-03-12T19:25:41.194Z,38.37
2024-03-12T19:28:09.393Z,34.17
2024-03-12T19:30:38.038Z,34.37
2024-03-12T19:33:09.789Z,33.87
2024-03-12T19:35:40.182Z,29.63
2024-03-12T19:38:10.397Z,28.97
2024-03-12T19:40:39.004Z,33.37
2024-03-12T19:43:07.818Z,33.07
2024-03-12T19:45:36.408Z,32.03
2024-03-12T19:48:07.203Z,30.50
2024-03-12T19:50:37.262Z,29.40
2024-03-12T19:53:05.540Z,28.47
2024-03-12T19:55:35.305Z,29.37
2024-03-12T19:58:05.462Z,29.20
2024-03-12T20:00:34.867Z,28.77
2024-03-12T20:03:06.521Z,25.97
2024-03-12T20:05:37.691Z,26.13
2024-03-12T20:08:10.127Z,26.30
2024-03-12T20:10:39.249Z,26.97
2024-03-12T20:13:07.444Z,27.70
2024-03-12T20:15:38.216Z,27.00
2024-03-12T20:18:07.599Z,27.43
2024-03-12T20:20:37.228Z,28.37
2024-03-12T20:23:07.178Z,25.47
2024-03-12T20:25:35.834Z,26.30
2024-03-12T20:28:11.058Z,26.80
2024-03-12T20:30:40.993Z,26.50
2024-03-12T20:33:13.140Z,27.07
2024-03-12T20:35:44.430Z,27.23
2024-03-12T20:38:15.152Z,27.23
2024-03-12T20:40:44.305Z,25.87
2024-03-12T20:43:12.933Z,27.77
2024-03-12T20:45:41.217Z,29.17
2024-03-12T20:48:11.604Z,26.93
2024-03-12T20:50:41.087Z,30.17
2024-03-12T20:53:11.314Z,28.40
2024-03-12T20:55:40.086Z,29.47
2024-03-12T20:58:08.398Z,29.53
2024-03-12T21:00:39.203Z,27.90
2024-03-12T21:03:10.749Z,28.93
2024-03-12T21:05:40.718Z,28.97
2024-03-12T21:08:11.017Z,27.10
2024-03-12T21:10:44.254Z,25.33
2024-03-12T21:13:13.619Z,29.43
2024-03-12T21:15:41.694Z,27.87
2024-03-12T21:18:10.546Z,24.60
2024-03-12T21:20:38.622Z,25.07
2024-03-12T21:23:09.558Z,27.67
2024-03-12T21:25:39.222Z,28.07
2024-03-12T21:28:07.403Z,31.27
2024-03-12T21:30:37.422Z,27.83
2024-03-12T21:33:05.683Z,30.37
2024-03-12T21:35:34.788Z,28.43
2024-03-12T21:38:03.019Z,31.07
2024-03-12T21:40:33.998Z,36.50
2024-03-12T21:43:05.271Z,35.03
2024-03-12T21:45:36.595Z,30.13
2024-03-12T21:48:08.618Z,36.23
2024-03-12T21:50:37.404Z,38.17
2024-03-12T21:53:09.184Z,33.10
2024-03-12T21:55:38.884Z,30.20
2024-03-12T21:58:08.790Z,33.77
2024-03-12T22:00:36.824Z,32.53
2024-03-12T22:03:05.284Z,35.80
2024-03-12T22:05:34.222Z,38.30
2024-03-12T22:08:02.292Z,35.40
2024-03-12T22:10:30.379Z,35.37
2024-03-12T22:12:58.464Z,33.00
2024-03-12T22:15:27.907Z,39.50
2024-03-12T22:17:57.279Z,36.70
2024-03-12T22:20:25.599Z,33.30
2024-03-12T22:22:54.959Z,30.87
2024-03-12T22:25:23.775Z,33.53
2024-03-12T22:27:51.914Z,33.27
2024-03-12T22:30:21.510Z,34.70
2024-03-12T22:32:51.378Z,32.93
2024-03-12T22:35:20.477Z,33.27
2024-03-12T22:37:49.452Z,29.67
2024-03-12T22:40:19.730Z,32.40
2024-03-12T22:42:48.999Z,31.83
2024-03-12T22:45:17.780Z,29.77
2024-03-12T22:47:46.258Z,29.37
2024-03-12T22:50:18.627Z,27.20
2024-03-12T22:52:48.628Z,27.47
2024-03-12T22:55:17.762Z,26.07
2024-03-12T22:57:47.720Z,25.77
2024-03-12T23:00:33.924Z,25.67
2024-03-12T23:03:02.475Z,30.87
2024-03-12T23:05:34.947Z,27.47
2024-03-12T23:08:06.277Z,27.77
2024-03-12T23:10:36.346Z,30.00
2024-03-12T23:13:05.332Z,31.00
2024-03-12T23:15:36.153Z,29.80
2024-03-12T23:18:05.231Z,29.10
2024-03-12T23:20:35.446Z,29.30
2024-03-12T23:23:03.775Z,29.83
2024-03-12T23:25:32.202Z,30.53
2024-03-12T23:28:00.841Z,30.50
2024-03-12T23:30:29.396Z,29.73
2024-03-12T23:32:59.316Z,32.53
2024-03-12T23:35:29.049Z,29.07
2024-03-12T23:37:59.178Z,29.80
2024-03-12T23:40:28.985Z,31.97
2024-03-12T23:42:57.371Z,30.63
2024-03-12T23:45:25.673Z,28.13
2024-03-12T23:47:53.749Z,27.73
2024-03-12T23:50:22.131Z,28.23
2024-03-12T23:52:50.848Z,30.77
2024-03-12T23:55:20.567Z,28.70
2024-03-12T23:57:49.863Z,28.60
